sensor_id;sensor_type;location;lat;lon;timestamp;P1;durP1;ratioP1;P2;durP2;ratioP2
43678;SDS011;29279;50.858;4.392;2023-05-10T00:01:46;12.80;;;7.93;;
43678;SDS011;29279;50.858;4.392;2023-05-10T00:04:11;21.20;;;9.02;;
43678;SDS011;29279;50.858;4.392;2023-05-10T00:06:37;25.02;;;9.05;;
43678;SDS011;29279;50.858;4.392;2023-05-10T00:09:03;21.48;;;9.82;;
43678;SDS011;29279;50.858;4.392;2023-05-10T00:11:28;20.30;;;10.32;;
43678;SDS011;29279;50.858;4.392;2023-05-10T00:13:54;22.70;;;10.13;;
43678;SDS011;29279;50.858;4.392;2023-05-10T00:16:20;28.80;;;11.60;;
43678;SDS011;29279;50.858;4.392;2023-05-10T00:18:46;20.77;;;10.40;;
43678;SDS011;29279;50.858;4.392;2023-05-10T00:21:11;25.40;;;10.43;;
43678;SDS011;29279;50.858;4.392;2023-05-10T00:23:38;22.77;;;9.93;;
43678;SDS011;29279;50.858;4.392;2023-05-10T00:26:04;29.55;;;11.48;;
43678;SDS011;29279;50.858;4.392;2023-05-10T00:28:29;28.17;;;11.27;;
43678;SDS011;29279;50.858;4.392;2023-05-10T00:30:55;28.95;;;11.10;;
43678;SDS011;29279;50.858;4.392;2023-05-10T00:33:20;29.38;;;11.85;;
43678;SDS011;29279;50.858;4.392;2023-05-10T00:35:46;22.80;;;11.13;;
43678;SDS011;29279;50.858;4.392;2023-05-10T00:38:12;23.63;;;11.30;;
43678;SDS011;29279;50.858;4.392;2023-05-10T00:40:38;25.63;;;11.48;;
43678;SDS011;29279;50.858;4.392;2023-05-10T00:43:03;24.65;;;11.50;;
43678;SDS011;29279;50.858;4.392;2023-05-10T00:45:30;26.45;;;11.38;;
43678;SDS011;29279;50.858;4.392;2023-05-10T00:48:01;25.88;;;12.30;;
43678;SDS011;29279;50.858;4.392;2023-05-10T00:50:28;28.50;;;12.07;;
43678;SDS011;29279;50.858;4.392;2023-05-10T00:52:55;24.23;;;11.65;;
43678;SDS011;29279;50.858;4.392;2023-05-10T00:55:22;29.65;;;12.48;;
43678;SDS011;29279;50.858;4.392;2023-05-10T00:57:48;26.65;;;11.88;;
43678;SDS011;29279;50.858;4.392;2023-05-10T01:00:18;29.08;;;11.68;;
43678;SDS011;29279;50.858;4.392;2023-05-10T01:02:45;27.88;;;13.18;;
43678;SDS011;29279;50.858;4.392;2023-05-10T01:05:11;28.08;;;12.23;;
43678;SDS011;29279;50.858;4.392;2023-05-10T01:07:37;23.77;;;12.63;;
43678;SDS011;29279;50.858;4.392;2023-05-10T01:10:03;25.75;;;12.77;;
43678;SDS011;29279;50.858;4.392;2023-05-10T01:12:34;24.27;;;13.30;;
43678;SDS011;29279;50.858;4.392;2023-05-10T01:15:05;28.10;;;13.10;;
43678;SDS011;29279;50.858;4.392;2023-05-10T01:17:35;33.92;;;13.10;;
43678;SDS011;29279;50.858;4.392;2023-05-10T01:20:04;31.25;;;13.40;;
43678;SDS011;29279;50.858;4.392;2023-05-10T01:34:42;28.17;;;13.88;;
43678;SDS011;29279;50.858;4.392;2023-05-10T01:40:32;32.42;;;15.52;;
43678;SDS011;29279;50.858;4.392;2023-05-10T01:43:11;28.17;;;14.35;;
43678;SDS011;29279;50.858;4.392;2023-05-10T01:46:01;32.33;;;15.43;;
43678;SDS011;29279;50.858;4.392;2023-05-10T01:48:35;29.13;;;14.05;;
43678;SDS011;29279;50.858;4.392;2023-05-10T01:51:05;29.38;;;14.60;;
43678;SDS011;29279;50.858;4.392;2023-05-10T01:53:31;28.42;;;14.50;;
43678;SDS011;29279;50.858;4.392;2023-05-10T01:56:02;30.88;;;14.65;;
43678;SDS011;29279;50.858;4.392;2023-05-10T01:58:31;25.17;;;13.85;;
43678;SDS011;29279;50.858;4.392;2023-05-10T02:00:59;27.85;;;14.02;;
43678;SDS011;29279;50.858;4.392;2023-05-10T02:03:28;25.67;;;14.75;;
43678;SDS011;29279;50.858;4.392;2023-05-10T02:05:56;27.17;;;14.35;;
43678;SDS011;29279;50.858;4.392;2023-05-10T02:08:23;30.42;;;14.88;;
43678;SDS011;29279;50.858;4.392;2023-05-10T02:10:51;28.38;;;14.48;;
43678;SDS011;29279;50.858;4.392;2023-05-10T02:13:20;23.98;;;14.48;;
43678;SDS011;29279;50.858;4.392;2023-05-10T02:15:48;29.23;;;15.25;;
43678;SDS011;29279;50.858;4.392;2023-05-10T02:18:15;29.52;;;15.27;;
43678;SDS011;29279;50.858;4.392;2023-05-10T02:20:42;31.75;;;15.45;;
43678;SDS011;29279;50.858;4.392;2023-05-10T02:23:10;28.83;;;13.93;;
43678;SDS011;29279;50.858;4.392;2023-05-10T02:25:37;32.60;;;14.55;;
43678;SDS011;29279;50.858;4.392;2023-05-10T02:28:04;30.17;;;15.82;;
43678;SDS011;29279;50.858;4.392;2023-05-10T02:30:32;31.90;;;14.85;;
43678;SDS011;29279;50.858;4.392;2023-05-10T02:32:59;28.30;;;14.55;;
43678;SDS011;29279;50.858;4.392;2023-05-10T02:35:27;27.55;;;15.10;;
43678;SDS011;29279;50.858;4.392;2023-05-10T02:37:54;32.08;;;14.05;;
43678;SDS011;29279;50.858;4.392;2023-05-10T02:40:21;28.67;;;14.48;;
43678;SDS011;29279;50.858;4.392;2023-05-10T02:42:50;33.70;;;14.20;;
43678;SDS011;29279;50.858;4.392;2023-05-10T02:45:20;30.65;;;14.50;;
43678;SDS011;29279;50.858;4.392;2023-05-10T02:47:49;25.17;;;13.50;;
43678;SDS011;29279;50.858;4.392;2023-05-10T02:50:15;28.80;;;14.43;;
43678;SDS011;29279;50.858;4.392;2023-05-10T02:52:47;27.50;;;14.02;;
43678;SDS011;29279;50.858;4.392;2023-05-10T02:55:19;24.45;;;13.57;;
43678;SDS011;29279;50.858;4.392;2023-05-10T02:58:20;22.98;;;12.45;;
43678;SDS011;29279;50.858;4.392;2023-05-10T03:00:39;23.55;;;12.93;;
43678;SDS011;29279;50.858;4.392;2023-05-10T03:03:05;27.15;;;13.15;;
43678;SDS011;29279;50.858;4.392;2023-05-10T03:05:31;31.40;;;14.48;;
43678;SDS011;29279;50.858;4.392;2023-05-10T03:07:58;23.85;;;12.63;;
43678;SDS011;29279;50.858;4.392;2023-05-10T03:10:28;24.58;;;13.73;;
43678;SDS011;29279;50.858;4.392;2023-05-10T03:19:01;23.67;;;13.13;;
43678;SDS011;29279;50.858;4.392;2023-05-10T03:21:37;27.08;;;13.27;;
43678;SDS011;29279;50.858;4.392;2023-05-10T03:24:08;28.10;;;14.98;;
43678;SDS011;29279;50.858;4.392;2023-05-10T03:26:37;31.05;;;14.80;;
43678;SDS011;29279;50.858;4.392;2023-05-10T03:29:05;25.35;;;14.35;;
43678;SDS011;29279;50.858;4.392;2023-05-10T03:31:32;27.58;;;13.80;;
43678;SDS011;29279;50.858;4.392;2023-05-10T03:33:58;27.88;;;15.02;;
43678;SDS011;29279;50.858;4.392;2023-05-10T03:36:24;30.27;;;14.23;;
43678;SDS011;29279;50.858;4.392;2023-05-10T03:38:50;27.17;;;13.68;;
43678;SDS011;29279;50.858;4.392;2023-05-10T03:41:16;32.70;;;14.98;;
43678;SDS011;29279;50.858;4.392;2023-05-10T03:43:41;33.67;;;15.85;;
43678;SDS011;29279;50.858;4.392;2023-05-10T03:46:07;31.77;;;16.52;;
43678;SDS011;29279;50.858;4.392;2023-05-10T03:48:33;32.22;;;15.27;;
43678;SDS011;29279;50.858;4.392;2023-05-10T03:50:58;32.47;;;16.60;;
43678;SDS011;29279;50.858;4.392;2023-05-10T03:53:24;33.00;;;16.83;;
43678;SDS011;29279;50.858;4.392;2023-05-10T03:55:50;32.28;;;17.25;;
43678;SDS011;29279;50.858;4.392;2023-05-10T03:58:16;31.08;;;18.00;;
43678;SDS011;29279;50.858;4.392;2023-05-10T04:00:42;34.20;;;18.42;;
43678;SDS011;29279;50.858;4.392;2023-05-10T04:03:10;40.47;;;19.85;;
43678;SDS011;29279;50.858;4.392;2023-05-10T04:05:36;37.75;;;18.98;;
43678;SDS011;29279;50.858;4.392;2023-05-10T04:08:02;37.72;;;20.52;;
43678;SDS011;29279;50.858;4.392;2023-05-10T04:10:28;39.97;;;20.98;;
43678;SDS011;29279;50.858;4.392;2023-05-10T04:12:54;43.63;;;21.23;;
43678;SDS011;29279;50.858;4.392;2023-05-10T04:15:20;38.53;;;20.88;;
43678;SDS011;29279;50.858;4.392;2023-05-10T04:17:45;37.30;;;19.83;;
43678;SDS011;29279;50.858;4.392;2023-05-10T04:20:11;48.47;;;21.92;;
43678;SDS011;29279;50.858;4.392;2023-05-10T04:22:38;43.30;;;21.00;;
43678;SDS011;29279;50.858;4.392;2023-05-10T04:25:03;41.85;;;21.63;;
43678;SDS011;29279;50.858;4.392;2023-05-10T04:27:30;40.53;;;22.00;;
43678;SDS011;29279;50.858;4.392;2023-05-10T04:29:56;48.75;;;23.58;;
43678;SDS011;29279;50.858;4.392;2023-05-10T04:32:22;37.38;;;22.38;;
43678;SDS011;29279;50.858;4.392;2023-05-10T04:34:48;42.53;;;21.50;;
43678;SDS011;29279;50.858;4.392;2023-05-10T04:37:14;42.40;;;22.70;;
43678;SDS011;29279;50.858;4.392;2023-05-10T04:39:40;40.03;;;22.80;;
43678;SDS011;29279;50.858;4.392;2023-05-10T04:42:05;40.10;;;22.60;;
43678;SDS011;29279;50.858;4.392;2023-05-10T04:44:32;43.72;;;22.98;;
43678;SDS011;29279;50.858;4.392;2023-05-10T04:46:58;44.42;;;23.13;;
43678;SDS011;29279;50.858;4.392;2023-05-10T04:49:24;44.42;;;23.98;;
43678;SDS011;29279;50.858;4.392;2023-05-10T04:51:51;45.33;;;24.05;;
43678;SDS011;29279;50.858;4.392;2023-05-10T04:54:17;47.05;;;24.42;;
43678;SDS011;29279;50.858;4.392;2023-05-10T04:56:42;39.22;;;23.60;;
43678;SDS011;29279;50.858;4.392;2023-05-10T04:59:08;44.05;;;25.00;;
43678;SDS011;29279;50.858;4.392;2023-05-10T05:01:34;44.78;;;24.77;;
43678;SDS011;29279;50.858;4.392;2023-05-10T05:03:59;43.20;;;25.35;;
43678;SDS011;29279;50.858;4.392;2023-05-10T05:06:25;45.88;;;24.23;;
43678;SDS011;29279;50.858;4.392;2023-05-10T05:08:52;43.90;;;26.05;;
43678;SDS011;29279;50.858;4.392;2023-05-10T05:11:17;40.50;;;25.15;;
43678;SDS011;29279;50.858;4.392;2023-05-10T05:13:43;43.88;;;24.30;;
43678;SDS011;29279;50.858;4.392;2023-05-10T05:16:09;41.13;;;24.48;;
43678;SDS011;29279;50.858;4.392;2023-05-10T05:18:36;44.05;;;24.10;;
43678;SDS011;29279;50.858;4.392;2023-05-10T05:21:01;44.83;;;23.73;;
43678;SDS011;29279;50.858;4.392;2023-05-10T05:23:27;46.70;;;25.00;;
43678;SDS011;29279;50.858;4.392;2023-05-10T05:25:53;41.10;;;23.77;;
43678;SDS011;29279;50.858;4.392;2023-05-10T05:28:22;36.53;;;22.25;;
43678;SDS011;29279;50.858;4.392;2023-05-10T05:30:47;39.95;;;24.67;;
43678;SDS011;29279;50.858;4.392;2023-05-10T05:33:13;37.00;;;23.20;;
43678;SDS011;29279;50.858;4.392;2023-05-10T05:35:40;45.70;;;24.55;;
43678;SDS011;29279;50.858;4.392;2023-05-10T05:38:07;38.60;;;24.38;;
43678;SDS011;29279;50.858;4.392;2023-05-10T05:40:33;37.50;;;22.08;;
43678;SDS011;29279;50.858;4.392;2023-05-10T05:42:59;41.92;;;21.67;;
43678;SDS011;29279;50.858;4.392;2023-05-10T05:45:26;39.13;;;18.67;;
43678;SDS011;29279;50.858;4.392;2023-05-10T05:47:51;27.13;;;14.27;;
43678;SDS011;29279;50.858;4.392;2023-05-10T05:50:17;25.45;;;13.50;;
43678;SDS011;29279;50.858;4.392;2023-05-10T05:52:43;23.15;;;14.05;;
43678;SDS011;29279;50.858;4.392;2023-05-10T05:55:08;22.27;;;12.10;;
43678;SDS011;29279;50.858;4.392;2023-05-10T05:57:34;28.50;;;13.15;;
43678;SDS011;29279;50.858;4.392;2023-05-10T06:00:00;22.48;;;14.25;;
43678;SDS011;29279;50.858;4.392;2023-05-10T06:02:25;22.95;;;13.57;;
43678;SDS011;29279;50.858;4.392;2023-05-10T06:04:51;36.13;;;16.38;;
43678;SDS011;29279;50.858;4.392;2023-05-10T06:07:17;29.23;;;15.95;;
43678;SDS011;29279;50.858;4.392;2023-05-10T06:09:42;28.58;;;16.42;;
43678;SDS011;29279;50.858;4.392;2023-05-10T06:12:08;34.10;;;17.15;;
43678;SDS011;29279;50.858;4.392;2023-05-10T06:14:34;33.63;;;15.35;;
43678;SDS011;29279;50.858;4.392;2023-05-10T06:16:59;31.85;;;17.02;;
43678;SDS011;29279;50.858;4.392;2023-05-10T06:19:25;35.35;;;16.27;;
43678;SDS011;29279;50.858;4.392;2023-05-10T06:21:51;36.47;;;18.02;;
43678;SDS011;29279;50.858;4.392;2023-05-10T06:24:17;35.05;;;17.42;;
43678;SDS011;29279;50.858;4.392;2023-05-10T06:26:42;32.15;;;17.67;;
43678;SDS011;29279;50.858;4.392;2023-05-10T06:29:08;35.22;;;17.85;;
43678;SDS011;29279;50.858;4.392;2023-05-10T06:31:34;30.65;;;15.05;;
43678;SDS011;29279;50.858;4.392;2023-05-10T06:34:00;32.03;;;13.30;;
43678;SDS011;29279;50.858;4.392;2023-05-10T06:36:25;25.30;;;11.80;;
43678;SDS011;29279;50.858;4.392;2023-05-10T06:38:52;20.30;;;9.45;;
43678;SDS011;29279;50.858;4.392;2023-05-10T06:41:18;14.70;;;8.90;;
43678;SDS011;29279;50.858;4.392;2023-05-10T06:43:44;24.98;;;8.48;;
43678;SDS011;29279;50.858;4.392;2023-05-10T06:46:09;16.40;;;8.65;;
43678;SDS011;29279;50.858;4.392;2023-05-10T06:48:35;21.60;;;8.68;;
43678;SDS011;29279;50.858;4.392;2023-05-10T06:51:01;20.75;;;8.65;;
43678;SDS011;29279;50.858;4.392;2023-05-10T06:53:27;22.23;;;8.13;;
43678;SDS011;29279;50.858;4.392;2023-05-10T06:55:52;20.02;;;8.65;;
43678;SDS011;29279;50.858;4.392;2023-05-10T06:58:18;20.08;;;10.50;;
43678;SDS011;29279;50.858;4.392;2023-05-10T07:00:43;26.80;;;10.93;;
43678;SDS011;29279;50.858;4.392;2023-05-10T07:03:10;23.92;;;11.25;;
43678;SDS011;29279;50.858;4.392;2023-05-10T07:05:36;29.08;;;11.15;;
43678;SDS011;29279;50.858;4.392;2023-05-10T07:08:01;25.90;;;11.35;;
43678;SDS011;29279;50.858;4.392;2023-05-10T07:10:27;35.50;;;13.70;;
43678;SDS011;29279;50.858;4.392;2023-05-10T07:12:53;26.73;;;11.68;;
43678;SDS011;29279;50.858;4.392;2023-05-10T07:15:19;32.97;;;13.82;;
43678;SDS011;29279;50.858;4.392;2023-05-10T07:17:47;28.63;;;13.73;;
43678;SDS011;29279;50.858;4.392;2023-05-10T07:20:13;32.70;;;14.80;;
43678;SDS011;29279;50.858;4.392;2023-05-10T07:22:39;32.13;;;14.52;;
43678;SDS011;29279;50.858;4.392;2023-05-10T07:25:05;36.53;;;15.23;;
43678;SDS011;29279;50.858;4.392;2023-05-10T07:27:31;33.55;;;13.18;;
43678;SDS011;29279;50.858;4.392;2023-05-10T07:29:57;34.65;;;14.88;;
43678;SDS011;29279;50.858;4.392;2023-05-10T07:32:23;35.03;;;14.43;;
43678;SDS011;29279;50.858;4.392;2023-05-10T07:34:49;25.30;;;13.75;;
43678;SDS011;29279;50.858;4.392;2023-05-10T07:37:15;38.00;;;14.90;;
43678;SDS011;29279;50.858;4.392;2023-05-10T07:39:40;32.05;;;13.15;;
43678;SDS011;29279;50.858;4.392;2023-05-10T07:42:06;46.75;;;14.32;;
43678;SDS011;29279;50.858;4.392;2023-05-10T07:44:32;31.42;;;13.73;;
43678;SDS011;29279;50.858;4.392;2023-05-10T07:46:57;32.30;;;13.05;;
43678;SDS011;29279;50.858;4.392;2023-05-10T07:49:23;32.25;;;13.10;;
43678;SDS011;29279;50.858;4.392;2023-05-10T07:51:49;37.00;;;13.48;;
43678;SDS011;29279;50.858;4.392;2023-05-10T07:54:15;25.33;;;13.18;;
43678;SDS011;29279;50.858;4.392;2023-05-10T07:56:40;34.80;;;14.88;;
43678;SDS011;29279;50.858;4.392;2023-05-10T07:59:14;34.97;;;15.02;;
43678;SDS011;29279;50.858;4.392;2023-05-10T08:01:40;30.88;;;14.23;;
43678;SDS011;29279;50.858;4.392;2023-05-10T08:04:06;29.27;;;13.82;;
43678;SDS011;29279;50.858;4.392;2023-05-10T08:06:32;28.13;;;13.23;;
43678;SDS011;29279;50.858;4.392;2023-05-10T08:08:58;30.40;;;12.98;;
43678;SDS011;29279;50.858;4.392;2023-05-10T08:11:24;25.38;;;12.88;;
43678;SDS011;29279;50.858;4.392;2023-05-10T08:13:50;27.52;;;13.18;;
43678;SDS011;29279;50.858;4.392;2023-05-10T08:16:16;27.70;;;11.98;;
43678;SDS011;29279;50.858;4.392;2023-05-10T08:18:42;26.38;;;11.57;;
43678;SDS011;29279;50.858;4.392;2023-05-10T08:21:12;24.83;;;11.10;;
43678;SDS011;29279;50.858;4.392;2023-05-10T08:23:38;20.38;;;11.48;;
43678;SDS011;29279;50.858;4.392;2023-05-10T08:26:04;22.50;;;11.40;;
43678;SDS011;29279;50.858;4.392;2023-05-10T08:28:30;20.00;;;11.38;;
43678;SDS011;29279;50.858;4.392;2023-05-10T08:30:56;19.70;;;10.88;;
43678;SDS011;29279;50.858;4.392;2023-05-10T08:33:22;17.92;;;10.32;;
43678;SDS011;29279;50.858;4.392;2023-05-10T08:35:48;16.27;;;9.05;;
43678;SDS011;29279;50.858;4.392;2023-05-10T08:38:13;17.98;;;8.40;;
43678;SDS011;29279;50.858;4.392;2023-05-10T08:40:41;17.27;;;8.80;;
43678;SDS011;29279;50.858;4.392;2023-05-10T08:43:09;18.02;;;8.82;;
43678;SDS011;29279;50.858;4.392;2023-05-10T08:45:40;15.40;;;8.55;;
43678;SDS011;29279;50.858;4.392;2023-05-10T08:48:13;74.22;;;19.75;;
43678;SDS011;29279;50.858;4.392;2023-05-10T08:50:40;17.50;;;8.93;;
43678;SDS011;29279;50.858;4.392;2023-05-10T08:53:11;15.48;;;8.85;;
43678;SDS011;29279;50.858;4.392;2023-05-10T08:55:38;13.10;;;8.48;;
43678;SDS011;29279;50.858;4.392;2023-05-10T08:58:05;15.50;;;9.10;;
43678;SDS011;29279;50.858;4.392;2023-05-10T09:00:31;15.05;;;8.48;;
43678;SDS011;29279;50.858;4.392;2023-05-10T09:02:58;17.40;;;8.88;;
43678;SDS011;29279;50.858;4.392;2023-05-10T09:05:25;12.45;;;8.50;;
43678;SDS011;29279;50.858;4.392;2023-05-10T09:07:50;13.52;;;9.35;;
43678;SDS011;29279;50.858;4.392;2023-05-10T09:10:17;14.05;;;8.75;;
43678;SDS011;29279;50.858;4.392;2023-05-10T09:12:43;15.60;;;8.93;;
43678;SDS011;29279;50.858;4.392;2023-05-10T09:15:10;13.27;;;8.55;;
43678;SDS011;29279;50.858;4.392;2023-05-10T09:17:38;15.25;;;9.82;;
43678;SDS011;29279;50.858;4.392;2023-05-10T09:20:05;17.55;;;9.05;;
43678;SDS011;29279;50.858;4.392;2023-05-10T09:22:32;14.85;;;9.23;;
43678;SDS011;29279;50.858;4.392;2023-05-10T09:25:08;16.08;;;8.73;;
43678;SDS011;29279;50.858;4.392;2023-05-10T09:27:36;13.85;;;8.18;;
43678;SDS011;29279;50.858;4.392;2023-05-10T09:30:03;17.83;;;8.35;;
43678;SDS011;29279;50.858;4.392;2023-05-10T09:32:40;20.98;;;8.35;;
43678;SDS011;29279;50.858;4.392;2023-05-10T09:35:11;11.77;;;7.88;;
43678;SDS011;29279;50.858;4.392;2023-05-10T09:37:41;10.75;;;7.68;;
43678;SDS011;29279;50.858;4.392;2023-05-10T09:40:15;21.70;;;7.20;;
43678;SDS011;29279;50.858;4.392;2023-05-10T09:42:42;13.98;;;7.63;;
43678;SDS011;29279;50.858;4.392;2023-05-10T09:45:16;14.20;;;6.55;;
43678;SDS011;29279;50.858;4.392;2023-05-10T09:47:41;11.55;;;6.50;;
43678;SDS011;29279;50.858;4.392;2023-05-10T09:50:07;21.77;;;7.28;;
43678;SDS011;29279;50.858;4.392;2023-05-10T09:52:47;12.60;;;6.70;;
43678;SDS011;29279;50.858;4.392;2023-05-10T09:55:18;12.18;;;7.40;;
43678;SDS011;29279;50.858;4.392;2023-05-10T09:57:45;13.13;;;8.10;;
43678;SDS011;29279;50.858;4.392;2023-05-10T10:00:21;11.35;;;7.70;;
43678;SDS011;29279;50.858;4.392;2023-05-10T10:02:48;16.48;;;8.23;;
43678;SDS011;29279;50.858;4.392;2023-05-10T10:05:27;15.68;;;7.82;;
43678;SDS011;29279;50.858;4.392;2023-05-10T10:08:00;12.80;;;7.38;;
43678;SDS011;29279;50.858;4.392;2023-05-10T10:10:30;12.43;;;7.28;;
43678;SDS011;29279;50.858;4.392;2023-05-10T10:12:57;11.93;;;7.88;;
43678;SDS011;29279;50.858;4.392;2023-05-10T10:15:24;15.60;;;7.28;;
43678;SDS011;29279;50.858;4.392;2023-05-10T10:17:51;10.95;;;7.93;;
43678;SDS011;29279;50.858;4.392;2023-05-10T10:20:18;12.88;;;7.70;;
43678;SDS011;29279;50.858;4.392;2023-05-10T10:22:45;15.27;;;8.43;;
43678;SDS011;29279;50.858;4.392;2023-05-10T10:25:12;13.32;;;7.80;;
43678;SDS011;29279;50.858;4.392;2023-05-10T10:35:31;13.68;;;8.60;;
43678;SDS011;29279;50.858;4.392;2023-05-10T10:37:57;12.85;;;7.82;;
43678;SDS011;29279;50.858;4.392;2023-05-10T10:40:24;14.40;;;8.05;;
43678;SDS011;29279;50.858;4.392;2023-05-10T10:46:10;10.95;;;7.28;;
43678;SDS011;29279;50.858;4.392;2023-05-10T10:48:39;14.70;;;8.00;;
43678;SDS011;29279;50.858;4.392;2023-05-10T10:51:16;12.27;;;7.72;;
43678;SDS011;29279;50.858;4.392;2023-05-10T10:53:42;11.00;;;7.43;;
43678;SDS011;29279;50.858;4.392;2023-05-10T10:56:09;15.23;;;7.75;;
43678;SDS011;29279;50.858;4.392;2023-05-10T10:58:37;14.02;;;7.32;;
43678;SDS011;29279;50.858;4.392;2023-05-10T11:01:10;8.35;;;6.28;;
43678;SDS011;29279;50.858;4.392;2023-05-10T11:04:16;12.35;;;7.88;;
43678;SDS011;29279;50.858;4.392;2023-05-10T11:06:40;12.80;;;6.53;;
43678;SDS011;29279;50.858;4.392;2023-05-10T11:09:08;11.88;;;7.47;;
43678;SDS011;29279;50.858;4.392;2023-05-10T11:11:36;12.43;;;7.25;;
43678;SDS011;29279;50.858;4.392;2023-05-10T11:14:14;10.57;;;6.53;;
43678;SDS011;29279;50.858;4.392;2023-05-10T11:16:46;17.63;;;8.18;;
43678;SDS011;29279;50.858;4.392;2023-05-10T11:19:12;15.43;;;8.02;;
43678;SDS011;29279;50.858;4.392;2023-05-10T11:24:36;14.10;;;8.00;;
43678;SDS011;29279;50.858;4.392;2023-05-10T11:27:02;14.32;;;7.32;;
43678;SDS011;29279;50.858;4.392;2023-05-10T11:29:28;15.23;;;7.68;;
43678;SDS011;29279;50.858;4.392;2023-05-10T11:31:56;12.02;;;7.20;;
43678;SDS011;29279;50.858;4.392;2023-05-10T11:34:30;17.23;;;8.23;;
43678;SDS011;29279;50.858;4.392;2023-05-10T11:36:59;12.63;;;8.38;;
43678;SDS011;29279;50.858;4.392;2023-05-10T11:39:28;14.95;;;8.10;;
43678;SDS011;29279;50.858;4.392;2023-05-10T11:41:55;15.50;;;8.20;;
43678;SDS011;29279;50.858;4.392;2023-05-10T11:44:22;18.58;;;7.57;;
43678;SDS011;29279;50.858;4.392;2023-05-10T11:46:48;12.40;;;7.70;;
43678;SDS011;29279;50.858;4.392;2023-05-10T11:49:14;11.30;;;6.68;;
43678;SDS011;29279;50.858;4.392;2023-05-10T11:51:40;16.55;;;7.35;;
43678;SDS011;29279;50.858;4.392;2023-05-10T11:54:08;20.25;;;7.05;;
43678;SDS011;29279;50.858;4.392;2023-05-10T11:56:36;11.02;;;7.35;;
43678;SDS011;29279;50.858;4.392;2023-05-10T11:59:03;13.95;;;7.47;;
43678;SDS011;29279;50.858;4.392;2023-05-10T12:01:29;9.93;;;6.43;;
43678;SDS011;29279;50.858;4.392;2023-05-10T12:03:57;15.77;;;6.82;;
43678;SDS011;29279;50.858;4.392;2023-05-10T12:06:27;10.57;;;6.90;;
43678;SDS011;29279;50.858;4.392;2023-05-10T12:08:54;9.55;;;6.55;;
43678;SDS011;29279;50.858;4.392;2023-05-10T12:11:20;9.43;;;6.53;;
43678;SDS011;29279;50.858;4.392;2023-05-10T12:13:49;9.32;;;5.90;;
43678;SDS011;29279;50.858;4.392;2023-05-10T12:16:16;11.77;;;7.00;;
43678;SDS011;29279;50.858;4.392;2023-05-10T12:18:44;10.75;;;6.55;;
43678;SDS011;29279;50.858;4.392;2023-05-10T12:21:12;10.60;;;6.90;;
43678;SDS011;29279;50.858;4.392;2023-05-10T12:23:40;12.13;;;7.15;;
43678;SDS011;29279;50.858;4.392;2023-05-10T12:26:07;11.43;;;6.85;;
43678;SDS011;29279;50.858;4.392;2023-05-10T12:28:35;11.02;;;6.18;;
43678;SDS011;29279;50.858;4.392;2023-05-10T12:31:02;8.80;;;6.90;;
43678;SDS011;29279;50.858;4.392;2023-05-10T12:33:35;8.82;;;5.72;;
43678;SDS011;29279;50.858;4.392;2023-05-10T12:36:06;9.48;;;6.43;;
43678;SDS011;29279;50.858;4.392;2023-05-10T12:38:33;10.82;;;7.85;;
43678;SDS011;29279;50.858;4.392;2023-05-10T12:41:01;12.90;;;8.15;;
43678;SDS011;29279;50.858;4.392;2023-05-10T12:43:28;12.00;;;7.28;;
43678;SDS011;29279;50.858;4.392;2023-05-10T12:45:54;9.27;;;6.97;;
43678;SDS011;29279;50.858;4.392;2023-05-10T12:48:20;12.07;;;8.35;;
43678;SDS011;29279;50.858;4.392;2023-05-10T12:50:46;10.60;;;7.82;;
43678;SDS011;29279;50.858;4.392;2023-05-10T12:53:13;12.63;;;8.55;;
43678;SDS011;29279;50.858;4.392;2023-05-10T12:55:42;12.23;;;8.00;;
43678;SDS011;29279;50.858;4.392;2023-05-10T12:58:08;15.20;;;7.47;;
43678;SDS011;29279;50.858;4.392;2023-05-10T13:00:34;10.93;;;6.75;;
43678;SDS011;29279;50.858;4.392;2023-05-10T13:03:02;11.80;;;7.32;;
43678;SDS011;29279;50.858;4.392;2023-05-10T13:05:32;9.93;;;6.00;;
43678;SDS011;29279;50.858;4.392;2023-05-10T13:07:58;7.40;;;5.15;;
43678;SDS011;29279;50.858;4.392;2023-05-10T13:10:24;12.48;;;6.00;;
43678;SDS011;29279;50.858;4.392;2023-05-10T13:12:50;7.13;;;5.90;;
43678;SDS011;29279;50.858;4.392;2023-05-10T13:15:15;10.80;;;5.70;;
43678;SDS011;29279;50.858;4.392;2023-05-10T13:17:42;5.90;;;4.60;;
43678;SDS011;29279;50.858;4.392;2023-05-10T13:20:08;7.10;;;4.40;;
43678;SDS011;29279;50.858;4.392;2023-05-10T13:22:37;9.73;;;4.93;;
43678;SDS011;29279;50.858;4.392;2023-05-10T13:25:02;6.97;;;4.65;;
43678;SDS011;29279;50.858;4.392;2023-05-10T13:27:28;6.88;;;4.43;;
43678;SDS011;29279;50.858;4.392;2023-05-10T13:29:54;9.52;;;4.07;;
43678;SDS011;29279;50.858;4.392;2023-05-10T13:32:20;7.63;;;4.97;;
43678;SDS011;29279;50.858;4.392;2023-05-10T13:34:46;12.73;;;6.88;;
43678;SDS011;29279;50.858;4.392;2023-05-10T13:37:12;11.43;;;7.03;;
43678;SDS011;29279;50.858;4.392;2023-05-10T13:39:37;12.63;;;7.05;;
43678;SDS011;29279;50.858;4.392;2023-05-10T13:42:03;11.68;;;7.18;;
43678;SDS011;29279;50.858;4.392;2023-05-10T13:44:29;10.90;;;7.55;;
43678;SDS011;29279;50.858;4.392;2023-05-10T13:46:56;12.45;;;6.63;;
43678;SDS011;29279;50.858;4.392;2023-05-10T13:49:22;11.25;;;6.53;;
43678;SDS011;29279;50.858;4.392;2023-05-10T13:51:47;11.10;;;6.38;;
43678;SDS011;29279;50.858;4.392;2023-05-10T13:54:13;9.02;;;6.25;;
43678;SDS011;29279;50.858;4.392;2023-05-10T13:56:39;12.55;;;6.97;;
43678;SDS011;29279;50.858;4.392;2023-05-10T13:59:08;13.90;;;7.25;;
43678;SDS011;29279;50.858;4.392;2023-05-10T14:01:34;13.18;;;9.00;;
43678;SDS011;29279;50.858;4.392;2023-05-10T14:04:00;14.57;;;8.27;;
43678;SDS011;29279;50.858;4.392;2023-05-10T14:06:25;16.48;;;9.52;;
43678;SDS011;29279;50.858;4.392;2023-05-10T14:08:52;19.73;;;10.75;;
43678;SDS011;29279;50.858;4.392;2023-05-10T14:11:18;14.57;;;10.23;;
43678;SDS011;29279;50.858;4.392;2023-05-10T14:13:44;16.13;;;10.40;;
43678;SDS011;29279;50.858;4.392;2023-05-10T14:16:10;15.68;;;11.40;;
43678;SDS011;29279;50.858;4.392;2023-05-10T14:18:36;18.42;;;10.80;;
43678;SDS011;29279;50.858;4.392;2023-05-10T14:21:02;19.20;;;11.95;;
43678;SDS011;29279;50.858;4.392;2023-05-10T14:23:28;15.63;;;10.68;;
43678;SDS011;29279;50.858;4.392;2023-05-10T14:25:55;17.52;;;10.68;;
43678;SDS011;29279;50.858;4.392;2023-05-10T14:28:20;18.55;;;13.38;;
43678;SDS011;29279;50.858;4.392;2023-05-10T14:30:47;20.00;;;12.98;;
43678;SDS011;29279;50.858;4.392;2023-05-10T14:33:13;18.45;;;13.10;;
43678;SDS011;29279;50.858;4.392;2023-05-10T14:35:38;21.73;;;12.77;;
43678;SDS011;29279;50.858;4.392;2023-05-10T14:38:04;15.77;;;12.15;;
43678;SDS011;29279;50.858;4.392;2023-05-10T14:40:30;17.25;;;11.85;;
43678;SDS011;29279;50.858;4.392;2023-05-10T14:42:56;18.02;;;11.60;;
43678;SDS011;29279;50.858;4.392;2023-05-10T14:45:22;23.98;;;11.07;;
43678;SDS011;29279;50.858;4.392;2023-05-10T14:47:48;18.30;;;10.75;;
43678;SDS011;29279;50.858;4.392;2023-05-10T14:50:14;20.65;;;11.50;;
43678;SDS011;29279;50.858;4.392;2023-05-10T14:52:41;26.30;;;12.63;;
43678;SDS011;29279;50.858;4.392;2023-05-10T14:55:07;22.23;;;13.02;;
43678;SDS011;29279;50.858;4.392;2023-05-10T14:57:33;20.83;;;12.57;;
43678;SDS011;29279;50.858;4.392;2023-05-10T15:00:03;21.17;;;11.32;;
43678;SDS011;29279;50.858;4.392;2023-05-10T15:02:30;18.92;;;11.60;;
43678;SDS011;29279;50.858;4.392;2023-05-10T15:04:56;19.55;;;10.80;;